sensor_id;sensor_type;location;lat;lon;timestamp;P1;durP1;ratioP1;P2;durP2;ratioP2
50900;SDS011;36879;51.416;6.678;2023-04-04T00:01:43;4.90;;;2.33;;
50900;SDS011;36879;51.416;6.678;2023-04-04T00:04:09;8.18;;;3.38;;
50900;SDS011;36879;51.416;6.678;2023-04-04T00:06:35;9.02;;;3.30;;
50900;SDS011;36879;51.416;6.678;2023-04-04T00:09:01;8.35;;;3.28;;
50900;SDS011;36879;51.416;6.678;2023-04-04T00:11:27;8.15;;;2.70;;
50900;SDS011;36879;51.416;6.678;2023-04-04T00:13:53;5.88;;;2.92;;
50900;SDS011;36879;51.416;6.678;2023-04-04T00:16:19;11.20;;;3.38;;
50900;SDS011;36879;51.416;6.678;2023-04-04T00:18:46;9.45;;;3.40;;
50900;SDS011;36879;51.416;6.678;2023-04-04T00:21:12;6.32;;;3.50;;
50900;SDS011;36879;51.416;6.678;2023-04-04T00:23:38;4.80;;;2.78;;
50900;SDS011;36879;51.416;6.678;2023-04-04T00:26:04;11.48;;;4.00;;
50900;SDS011;36879;51.416;6.678;2023-04-04T00:28:30;7.47;;;3.42;;
50900;SDS011;36879;51.416;6.678;2023-04-04T00:30:56;6.47;;;3.00;;
50900;SDS011;36879;51.416;6.678;2023-04-04T00:33:22;6.65;;;2.97;;
50900;SDS011;36879;51.416;6.678;2023-04-04T00:35:48;5.15;;;3.30;;
50900;SDS011;36879;51.416;6.678;2023-04-04T00:38:14;10.18;;;3.58;;
50900;SDS011;36879;51.416;6.678;2023-04-04T00:40:41;7.93;;;3.10;;
50900;SDS011;36879;51.416;6.678;2023-04-04T00:43:07;13.35;;;3.22;;
50900;SDS011;36879;51.416;6.678;2023-04-04T00:45:33;8.55;;;3.78;;
50900;SDS011;36879;51.416;6.678;2023-04-04T00:48:00;8.30;;;2.50;;
50900;SDS011;36879;51.416;6.678;2023-04-04T00:50:27;5.50;;;2.90;;
50900;SDS011;36879;51.416;6.678;2023-04-04T00:52:53;7.80;;;3.50;;
50900;SDS011;36879;51.416;6.678;2023-04-04T00:55:20;8.25;;;3.75;;
50900;SDS011;36879;51.416;6.678;2023-04-04T00:57:46;9.23;;;4.03;;
50900;SDS011;36879;51.416;6.678;2023-04-04T01:00:12;6.53;;;3.22;;
50900;SDS011;36879;51.416;6.678;2023-04-04T01:02:39;7.47;;;3.13;;
50900;SDS011;36879;51.416;6.678;2023-04-04T01:05:05;8.27;;;2.55;;
50900;SDS011;36879;51.416;6.678;2023-04-04T01:07:31;6.50;;;2.50;;
50900;SDS011;36879;51.416;6.678;2023-04-04T01:09:58;12.98;;;3.65;;
50900;SDS011;36879;51.416;6.678;2023-04-04T01:12:27;10.80;;;3.25;;
50900;SDS011;36879;51.416;6.678;2023-04-04T01:14:54;7.20;;;3.83;;
50900;SDS011;36879;51.416;6.678;2023-04-04T01:17:20;5.63;;;2.97;;
50900;SDS011;36879;51.416;6.678;2023-04-04T01:19:55;9.27;;;3.67;;
50900;SDS011;36879;51.416;6.678;2023-04-04T01:22:23;6.25;;;3.67;;
50900;SDS011;36879;51.416;6.678;2023-04-04T01:24:52;9.75;;;3.15;;
50900;SDS011;36879;51.416;6.678;2023-04-04T01:27:19;6.57;;;3.70;;
50900;SDS011;36879;51.416;6.678;2023-04-04T01:29:45;7.65;;;3.60;;
50900;SDS011;36879;51.416;6.678;2023-04-04T01:32:12;6.47;;;3.45;;
50900;SDS011;36879;51.416;6.678;2023-04-04T01:34:43;9.32;;;3.85;;
50900;SDS011;36879;51.416;6.678;2023-04-04T01:39:42;10.18;;;3.80;;
50900;SDS011;36879;51.416;6.678;2023-04-04T01:42:10;13.48;;;4.70;;
50900;SDS011;36879;51.416;6.678;2023-04-04T01:44:36;7.65;;;3.72;;
50900;SDS011;36879;51.416;6.678;2023-04-04T01:47:04;7.45;;;3.63;;
50900;SDS011;36879;51.416;6.678;2023-04-04T01:49:32;6.13;;;3.38;;
50900;SDS011;36879;51.416;6.678;2023-04-04T01:51:58;7.82;;;3.72;;
50900;SDS011;36879;51.416;6.678;2023-04-04T01:54:24;10.13;;;3.83;;
50900;SDS011;36879;51.416;6.678;2023-04-04T01:56:52;6.82;;;3.55;;
50900;SDS011;36879;51.416;6.678;2023-04-04T01:59:18;15.07;;;4.60;;
50900;SDS011;36879;51.416;6.678;2023-04-04T02:01:44;12.45;;;3.97;;
50900;SDS011;36879;51.416;6.678;2023-04-04T02:04:10;10.35;;;3.33;;
50900;SDS011;36879;51.416;6.678;2023-04-04T02:06:37;6.22;;;3.28;;
50900;SDS011;36879;51.416;6.678;2023-04-04T02:09:04;7.00;;;3.30;;
50900;SDS011;36879;51.416;6.678;2023-04-04T02:11:31;8.98;;;4.35;;
50900;SDS011;36879;51.416;6.678;2023-04-04T02:13:57;10.60;;;4.82;;
50900;SDS011;36879;51.416;6.678;2023-04-04T02:16:23;8.98;;;3.63;;
50900;SDS011;36879;51.416;6.678;2023-04-04T02:18:49;9.68;;;4.32;;
50900;SDS011;36879;51.416;6.678;2023-04-04T02:21:15;7.05;;;3.65;;
50900;SDS011;36879;51.416;6.678;2023-04-04T02:23:41;8.63;;;3.80;;
50900;SDS011;36879;51.416;6.678;2023-04-04T02:26:07;8.00;;;3.75;;
50900;SDS011;36879;51.416;6.678;2023-04-04T02:28:33;6.40;;;3.63;;
50900;SDS011;36879;51.416;6.678;2023-04-04T02:31:00;10.20;;;3.83;;
50900;SDS011;36879;51.416;6.678;2023-04-04T02:33:26;8.68;;;3.47;;
50900;SDS011;36879;51.416;6.678;2023-04-04T02:35:55;8.93;;;3.70;;
50900;SDS011;36879;51.416;6.678;2023-04-04T02:38:21;9.07;;;3.08;;
50900;SDS011;36879;51.416;6.678;2023-04-04T02:40:47;7.15;;;3.40;;
50900;SDS011;36879;51.416;6.678;2023-04-04T02:43:13;10.90;;;3.00;;
50900;SDS011;36879;51.416;6.678;2023-04-04T02:45:39;7.88;;;3.80;;
50900;SDS011;36879;51.416;6.678;2023-04-04T02:48:05;9.32;;;4.00;;
50900;SDS011;36879;51.416;6.678;2023-04-04T02:50:31;8.88;;;3.50;;
50900;SDS011;36879;51.416;6.678;2023-04-04T02:53:04;8.07;;;3.10;;
50900;SDS011;36879;51.416;6.678;2023-04-04T02:55:30;6.88;;;3.65;;
50900;SDS011;36879;51.416;6.678;2023-04-04T02:57:56;8.15;;;3.63;;
50900;SDS011;36879;51.416;6.678;2023-04-04T03:00:22;6.85;;;4.00;;
50900;SDS011;36879;51.416;6.678;2023-04-04T03:02:54;5.40;;;3.47;;
50900;SDS011;36879;51.416;6.678;2023-04-04T03:05:20;8.10;;;3.90;;
50900;SDS011;36879;51.416;6.678;2023-04-04T03:07:46;9.95;;;4.72;;
50900;SDS011;36879;51.416;6.678;2023-04-04T03:10:12;8.85;;;3.33;;
50900;SDS011;36879;51.416;6.678;2023-04-04T03:12:38;9.73;;;3.55;;
50900;SDS011;36879;51.416;6.678;2023-04-04T03:15:04;7.47;;;4.43;;
50900;SDS011;36879;51.416;6.678;2023-04-04T03:17:32;7.82;;;4.25;;
50900;SDS011;36879;51.416;6.678;2023-04-04T03:19:58;10.50;;;3.63;;
50900;SDS011;36879;51.416;6.678;2023-04-04T03:22:24;7.80;;;4.03;;
50900;SDS011;36879;51.416;6.678;2023-04-04T03:24:51;10.20;;;4.15;;
50900;SDS011;36879;51.416;6.678;2023-04-04T03:27:16;9.48;;;4.00;;
50900;SDS011;36879;51.416;6.678;2023-04-04T03:29:42;7.22;;;3.63;;
50900;SDS011;36879;51.416;6.678;2023-04-04T03:32:08;9.25;;;3.78;;
50900;SDS011;36879;51.416;6.678;2023-04-04T03:34:35;8.25;;;3.97;;
50900;SDS011;36879;51.416;6.678;2023-04-04T03:37:00;6.55;;;3.50;;
50900;SDS011;36879;51.416;6.678;2023-04-04T03:39:27;8.30;;;3.67;;
50900;SDS011;36879;51.416;6.678;2023-04-04T03:41:54;5.88;;;3.13;;
50900;SDS011;36879;51.416;6.678;2023-04-04T03:44:20;7.28;;;4.07;;
50900;SDS011;36879;51.416;6.678;2023-04-04T03:46:46;10.98;;;4.80;;
50900;SDS011;36879;51.416;6.678;2023-04-04T03:49:12;8.60;;;3.88;;
50900;SDS011;36879;51.416;6.678;2023-04-04T03:51:38;11.73;;;4.28;;
50900;SDS011;36879;51.416;6.678;2023-04-04T03:54:04;9.20;;;3.22;;
50900;SDS011;36879;51.416;6.678;2023-04-04T03:56:30;6.95;;;3.40;;
50900;SDS011;36879;51.416;6.678;2023-04-04T03:58:57;10.23;;;4.22;;
50900;SDS011;36879;51.416;6.678;2023-04-04T04:01:23;8.50;;;4.07;;
50900;SDS011;36879;51.416;6.678;2023-04-04T04:03:49;10.65;;;5.43;;
50900;SDS011;36879;51.416;6.678;2023-04-04T04:06:15;7.03;;;3.97;;
50900;SDS011;36879;51.416;6.678;2023-04-04T04:08:41;10.10;;;4.38;;
50900;SDS011;36879;51.416;6.678;2023-04-04T04:11:07;10.40;;;4.95;;
50900;SDS011;36879;51.416;6.678;2023-04-04T04:13:33;11.35;;;5.28;;
50900;SDS011;36879;51.416;6.678;2023-04-04T04:16:01;9.30;;;4.80;;
50900;SDS011;36879;51.416;6.678;2023-04-04T04:18:27;12.63;;;5.15;;
50900;SDS011;36879;51.416;6.678;2023-04-04T04:20:56;16.38;;;5.00;;
50900;SDS011;36879;51.416;6.678;2023-04-04T04:23:28;12.65;;;5.22;;
50900;SDS011;36879;51.416;6.678;2023-04-04T04:25:54;14.15;;;4.97;;
50900;SDS011;36879;51.416;6.678;2023-04-04T04:28:20;11.50;;;4.97;;
50900;SDS011;36879;51.416;6.678;2023-04-04T04:30:47;13.07;;;5.50;;
50900;SDS011;36879;51.416;6.678;2023-04-04T04:33:13;13.13;;;5.20;;
50900;SDS011;36879;51.416;6.678;2023-04-04T04:35:39;14.00;;;5.47;;
50900;SDS011;36879;51.416;6.678;2023-04-04T04:38:06;15.93;;;6.00;;
50900;SDS011;36879;51.416;6.678;2023-04-04T04:40:32;10.15;;;5.25;;
50900;SDS011;36879;51.416;6.678;2023-04-04T04:42:58;7.75;;;5.05;;
50900;SDS011;36879;51.416;6.678;2023-04-04T04:45:25;9.07;;;5.20;;
50900;SDS011;36879;51.416;6.678;2023-04-04T04:47:51;7.00;;;4.20;;
50900;SDS011;36879;51.416;6.678;2023-04-04T04:50:17;12.60;;;5.25;;
50900;SDS011;36879;51.416;6.678;2023-04-04T04:52:43;9.70;;;5.07;;
50900;SDS011;36879;51.416;6.678;2023-04-04T04:55:09;6.70;;;4.03;;
50900;SDS011;36879;51.416;6.678;2023-04-04T04:57:36;11.13;;;4.63;;
50900;SDS011;36879;51.416;6.678;2023-04-04T05:00:02;8.18;;;4.85;;
50900;SDS011;36879;51.416;6.678;2023-04-04T05:02:29;15.02;;;5.53;;
50900;SDS011;36879;51.416;6.678;2023-04-04T05:04:55;10.48;;;4.70;;
50900;SDS011;36879;51.416;6.678;2023-04-04T05:07:21;8.52;;;4.88;;
50900;SDS011;36879;51.416;6.678;2023-04-04T05:09:47;10.00;;;5.22;;
50900;SDS011;36879;51.416;6.678;2023-04-04T05:12:13;12.93;;;5.22;;
50900;SDS011;36879;51.416;6.678;2023-04-04T05:14:39;14.68;;;5.70;;
50900;SDS011;36879;51.416;6.678;2023-04-04T05:17:05;10.90;;;5.20;;
50900;SDS011;36879;51.416;6.678;2023-04-04T05:19:31;7.00;;;4.53;;
50900;SDS011;36879;51.416;6.678;2023-04-04T05:21:57;10.45;;;6.07;;
50900;SDS011;36879;51.416;6.678;2023-04-04T05:24:23;9.68;;;5.05;;
50900;SDS011;36879;51.416;6.678;2023-04-04T05:26:50;8.95;;;4.95;;
50900;SDS011;36879;51.416;6.678;2023-04-04T05:29:15;14.35;;;5.95;;
50900;SDS011;36879;51.416;6.678;2023-04-04T05:31:41;15.18;;;5.65;;
50900;SDS011;36879;51.416;6.678;2023-04-04T05:34:07;11.00;;;5.53;;
50900;SDS011;36879;51.416;6.678;2023-04-04T05:36:34;9.75;;;6.10;;
50900;SDS011;36879;51.416;6.678;2023-04-04T05:39:00;9.27;;;5.28;;
50900;SDS011;36879;51.416;6.678;2023-04-04T05:41:28;13.52;;;5.32;;
50900;SDS011;36879;51.416;6.678;2023-04-04T05:43:54;19.02;;;5.88;;
50900;SDS011;36879;51.416;6.678;2023-04-04T05:46:20;13.50;;;6.90;;
50900;SDS011;36879;51.416;6.678;2023-04-04T05:48:46;11.23;;;6.75;;
50900;SDS011;36879;51.416;6.678;2023-04-04T05:51:14;10.73;;;6.15;;
50900;SDS011;36879;51.416;6.678;2023-04-04T05:53:40;12.90;;;6.47;;
50900;SDS011;36879;51.416;6.678;2023-04-04T05:56:06;14.95;;;7.53;;
50900;SDS011;36879;51.416;6.678;2023-04-04T05:58:32;14.32;;;7.30;;
50900;SDS011;36879;51.416;6.678;2023-04-04T06:00:58;15.13;;;6.90;;
50900;SDS011;36879;51.416;6.678;2023-04-04T06:03:24;10.65;;;6.72;;
50900;SDS011;36879;51.416;6.678;2023-04-04T06:05:52;12.23;;;5.93;;
50900;SDS011;36879;51.416;6.678;2023-04-04T06:08:18;17.48;;;6.45;;
50900;SDS011;36879;51.416;6.678;2023-04-04T06:10:44;15.25;;;6.95;;
50900;SDS011;36879;51.416;6.678;2023-04-04T06:13:10;14.73;;;5.75;;
50900;SDS011;36879;51.416;6.678;2023-04-04T06:15:36;13.38;;;6.60;;
50900;SDS011;36879;51.416;6.678;2023-04-04T06:18:02;13.50;;;6.07;;
50900;SDS011;36879;51.416;6.678;2023-04-04T06:20:28;14.15;;;6.35;;
50900;SDS011;36879;51.416;6.678;2023-04-04T06:22:54;13.38;;;6.15;;
50900;SDS011;36879;51.416;6.678;2023-04-04T06:25:20;18.30;;;7.20;;
50900;SDS011;36879;51.416;6.678;2023-04-04T06:27:46;11.13;;;5.40;;
50900;SDS011;36879;51.416;6.678;2023-04-04T06:30:12;11.50;;;6.55;;
50900;SDS011;36879;51.416;6.678;2023-04-04T06:32:40;14.88;;;7.85;;
50900;SDS011;36879;51.416;6.678;2023-04-04T06:35:07;16.58;;;6.40;;
50900;SDS011;36879;51.416;6.678;2023-04-04T06:37:33;14.27;;;6.88;;
50900;SDS011;36879;51.416;6.678;2023-04-04T06:39:59;14.88;;;7.13;;
50900;SDS011;36879;51.416;6.678;2023-04-04T06:42:25;16.52;;;6.47;;
50900;SDS011;36879;51.416;6.678;2023-04-04T06:44:52;16.27;;;6.40;;
50900;SDS011;36879;51.416;6.678;2023-04-04T06:47:18;18.13;;;5.65;;
50900;SDS011;36879;51.416;6.678;2023-04-04T06:49:45;12.93;;;6.38;;
50900;SDS011;36879;51.416;6.678;2023-04-04T06:52:11;18.52;;;7.30;;
50900;SDS011;36879;51.416;6.678;2023-04-04T06:54:37;18.58;;;5.70;;
50900;SDS011;36879;51.416;6.678;2023-04-04T06:57:04;9.18;;;5.20;;
50900;SDS011;36879;51.416;6.678;2023-04-04T06:59:30;10.77;;;5.93;;
50900;SDS011;36879;51.416;6.678;2023-04-04T07:01:56;14.43;;;5.50;;
50900;SDS011;36879;51.416;6.678;2023-04-04T07:04:22;15.10;;;5.78;;
50900;SDS011;36879;51.416;6.678;2023-04-04T07:06:48;11.75;;;5.40;;
50900;SDS011;36879;51.416;6.678;2023-04-04T07:09:14;10.40;;;5.53;;
50900;SDS011;36879;51.416;6.678;2023-04-04T07:11:40;11.30;;;4.63;;
50900;SDS011;36879;51.416;6.678;2023-04-04T07:14:06;12.88;;;6.00;;
50900;SDS011;36879;51.416;6.678;2023-04-04T07:16:32;14.00;;;5.90;;
50900;SDS011;36879;51.416;6.678;2023-04-04T07:19:00;11.38;;;6.40;;
50900;SDS011;36879;51.416;6.678;2023-04-04T07:21:26;9.02;;;5.05;;
50900;SDS011;36879;51.416;6.678;2023-04-04T07:23:52;12.25;;;5.85;;
50900;SDS011;36879;51.416;6.678;2023-04-04T07:26:18;11.93;;;5.18;;
50900;SDS011;36879;51.416;6.678;2023-04-04T07:28:45;10.65;;;4.93;;
50900;SDS011;36879;51.416;6.678;2023-04-04T07:31:11;8.30;;;4.03;;
50900;SDS011;36879;51.416;6.678;2023-04-04T07:33:38;14.68;;;4.70;;
50900;SDS011;36879;51.416;6.678;2023-04-04T07:36:04;13.98;;;3.50;;
50900;SDS011;36879;51.416;6.678;2023-04-04T07:38:30;9.43;;;4.43;;
50900;SDS011;36879;51.416;6.678;2023-04-04T07:40:56;9.15;;;3.63;;
50900;SDS011;36879;51.416;6.678;2023-04-04T07:43:22;7.40;;;3.50;;
50900;SDS011;36879;51.416;6.678;2023-04-04T07:45:48;9.23;;;3.85;;
50900;SDS011;36879;51.416;6.678;2023-04-04T07:48:14;10.95;;;4.22;;
50900;SDS011;36879;51.416;6.678;2023-04-04T07:50:40;8.02;;;3.42;;
50900;SDS011;36879;51.416;6.678;2023-04-04T07:53:06;11.45;;;3.95;;
50900;SDS011;36879;51.416;6.678;2023-04-04T07:55:32;11.73;;;4.20;;
50900;SDS011;36879;51.416;6.678;2023-04-04T07:57:58;7.80;;;4.07;;
50900;SDS011;36879;51.416;6.678;2023-04-04T08:00:24;5.70;;;3.67;;
50900;SDS011;36879;51.416;6.678;2023-04-04T08:02:51;8.75;;;3.22;;
50900;SDS011;36879;51.416;6.678;2023-04-04T08:05:17;7.93;;;3.40;;
50900;SDS011;36879;51.416;6.678;2023-04-04T08:07:44;7.10;;;3.78;;
50900;SDS011;36879;51.416;6.678;2023-04-04T08:10:10;5.53;;;2.67;;
50900;SDS011;36879;51.416;6.678;2023-04-04T08:12:36;10.93;;;2.88;;
50900;SDS011;36879;51.416;6.678;2023-04-04T08:15:03;4.30;;;2.15;;
50900;SDS011;36879;51.416;6.678;2023-04-04T08:17:29;7.82;;;2.30;;
50900;SDS011;36879;51.416;6.678;2023-04-04T08:19:55;5.45;;;2.13;;
50900;SDS011;36879;51.416;6.678;2023-04-04T08:22:21;4.55;;;1.85;;
50900;SDS011;36879;51.416;6.678;2023-04-04T08:24:47;5.10;;;2.15;;
50900;SDS011;36879;51.416;6.678;2023-04-04T08:27:13;4.45;;;1.85;;
50900;SDS011;36879;51.416;6.678;2023-04-04T08:29:40;4.25;;;2.00;;
50900;SDS011;36879;51.416;6.678;2023-04-04T08:32:06;5.90;;;1.60;;
50900;SDS011;36879;51.416;6.678;2023-04-04T08:34:32;5.15;;;2.33;;
50900;SDS011;36879;51.416;6.678;2023-04-04T08:36:58;4.75;;;1.70;;
50900;SDS011;36879;51.416;6.678;2023-04-04T08:39:24;4.68;;;2.25;;
50900;SDS011;36879;51.416;6.678;2023-04-04T08:42:09;6.80;;;1.95;;
50900;SDS011;36879;51.416;6.678;2023-04-04T08:44:36;4.60;;;2.10;;
50900;SDS011;36879;51.416;6.678;2023-04-04T08:47:04;5.55;;;2.47;;
50900;SDS011;36879;51.416;6.678;2023-04-04T08:49:32;6.97;;;2.53;;
50900;SDS011;36879;51.416;6.678;2023-04-04T08:51:58;9.40;;;2.55;;
50900;SDS011;36879;51.416;6.678;2023-04-04T08:54:26;6.80;;;2.13;;
50900;SDS011;36879;51.416;6.678;2023-04-04T08:56:54;4.75;;;1.50;;
50900;SDS011;36879;51.416;6.678;2023-04-04T08:59:20;4.07;;;1.83;;
50900;SDS011;36879;51.416;6.678;2023-04-04T09:01:46;4.63;;;1.63;;
50900;SDS011;36879;51.416;6.678;2023-04-04T09:04:12;4.95;;;1.90;;
50900;SDS011;36879;51.416;6.678;2023-04-04T09:06:38;6.75;;;1.95;;
50900;SDS011;36879;51.416;6.678;2023-04-04T09:09:04;6.85;;;1.85;;
50900;SDS011;36879;51.416;6.678;2023-04-04T09:11:31;2.97;;;1.38;;
50900;SDS011;36879;51.416;6.678;2023-04-04T09:13:58;4.65;;;1.70;;
50900;SDS011;36879;51.416;6.678;2023-04-04T09:16:28;5.13;;;2.08;;
50900;SDS011;36879;51.416;6.678;2023-04-04T09:18:54;4.63;;;2.00;;
50900;SDS011;36879;51.416;6.678;2023-04-04T09:21:20;3.55;;;1.60;;
50900;SDS011;36879;51.416;6.678;2023-04-04T09:23:46;10.40;;;1.88;;
50900;SDS011;36879;51.416;6.678;2023-04-04T09:26:12;3.28;;;1.80;;
50900;SDS011;36879;51.416;6.678;2023-04-04T09:28:38;5.22;;;1.98;;
50900;SDS011;36879;51.416;6.678;2023-04-04T09:31:05;6.10;;;2.40;;
50900;SDS011;36879;51.416;6.678;2023-04-04T09:33:32;3.70;;;1.90;;
50900;SDS011;36879;51.416;6.678;2023-04-04T09:36:04;3.88;;;1.70;;
50900;SDS011;36879;51.416;6.678;2023-04-04T09:38:31;8.35;;;2.80;;
50900;SDS011;36879;51.416;6.678;2023-04-04T09:41:00;6.45;;;1.70;;
50900;SDS011;36879;51.416;6.678;2023-04-04T09:43:26;6.05;;;1.88;;
50900;SDS011;36879;51.416;6.678;2023-04-04T09:45:54;2.60;;;1.42;;
50900;SDS011;36879;51.416;6.678;2023-04-04T09:48:40;5.10;;;1.90;;
50900;SDS011;36879;51.416;6.678;2023-04-04T09:51:11;7.85;;;1.88;;
50900;SDS011;36879;51.416;6.678;2023-04-04T09:53:37;5.20;;;2.40;;
50900;SDS011;36879;51.416;6.678;2023-04-04T09:56:06;3.85;;;1.95;;
50900;SDS011;36879;51.416;6.678;2023-04-04T09:58:32;4.30;;;1.25;;
50900;SDS011;36879;51.416;6.678;2023-04-04T10:01:02;2.78;;;1.55;;
50900;SDS011;36879;51.416;6.678;2023-04-04T10:03:30;4.68;;;1.55;;
50900;SDS011;36879;51.416;6.678;2023-04-04T10:06:00;5.82;;;2.28;;
50900;SDS011;36879;51.416;6.678;2023-04-04T10:08:28;6.40;;;1.80;;
50900;SDS011;36879;51.416;6.678;2023-04-04T10:11:04;4.80;;;1.80;;
50900;SDS011;36879;51.416;6.678;2023-04-04T10:13:31;3.97;;;1.95;;
50900;SDS011;36879;51.416;6.678;2023-04-04T10:15:59;6.30;;;1.45;;
50900;SDS011;36879;51.416;6.678;2023-04-04T10:18:26;3.40;;;1.70;;
50900;SDS011;36879;51.416;6.678;2023-04-04T10:20:53;4.90;;;1.50;;
50900;SDS011;36879;51.416;6.678;2023-04-04T10:23:21;3.22;;;1.50;;
50900;SDS011;36879;51.416;6.678;2023-04-04T10:25:48;3.95;;;1.63;;
50900;SDS011;36879;51.416;6.678;2023-04-04T10:28:18;4.55;;;1.52;;
50900;SDS011;36879;51.416;6.678;2023-04-04T10:33:31;3.80;;;1.60;;
50900;SDS011;36879;51.416;6.678;2023-04-04T10:36:02;4.75;;;1.42;;
50900;SDS011;36879;51.416;6.678;2023-04-04T10:38:30;2.65;;;1.48;;
50900;SDS011;36879;51.416;6.678;2023-04-04T10:40:58;3.42;;;1.48;;
50900;SDS011;36879;51.416;6.678;2023-04-04T10:43:28;4.47;;;1.77;;
50900;SDS011;36879;51.416;6.678;2023-04-04T10:45:58;5.45;;;2.15;;
50900;SDS011;36879;51.416;6.678;2023-04-04T10:48:26;3.53;;;1.67;;
50900;SDS011;36879;51.416;6.678;2023-04-04T10:50:53;3.47;;;1.50;;
50900;SDS011;36879;51.416;6.678;2023-04-04T10:53:20;3.42;;;1.45;;
50900;SDS011;36879;51.416;6.678;2023-04-04T10:55:46;3.95;;;2.00;;
50900;SDS011;36879;51.416;6.678;2023-04-04T10:58:12;4.03;;;1.70;;
50900;SDS011;36879;51.416;6.678;2023-04-04T11:00:50;4.32;;;1.90;;
50900;SDS011;36879;51.416;6.678;2023-04-04T11:03:16;4.20;;;1.77;;
50900;SDS011;36879;51.416;6.678;2023-04-04T11:05:42;9.52;;;1.83;;
50900;SDS011;36879;51.416;6.678;2023-04-04T11:10:43;4.00;;;1.70;;
50900;SDS011;36879;51.416;6.678;2023-04-04T11:13:11;6.40;;;2.15;;
50900;SDS011;36879;51.416;6.678;2023-04-04T11:21:12;7.35;;;1.70;;
50900;SDS011;36879;51.416;6.678;2023-04-04T11:26:10;4.78;;;2.13;;
50900;SDS011;36879;51.416;6.678;2023-04-04T11:33:57;5.13;;;2.17;;
50900;SDS011;36879;51.416;6.678;2023-04-04T11:44:15;5.30;;;1.40;;
50900;SDS011;36879;51.416;6.678;2023-04-04T11:46:41;3.83;;;1.70;;
50900;SDS011;36879;51.416;6.678;2023-04-04T11:49:08;3.35;;;1.63;;
50900;SDS011;36879;51.416;6.678;2023-04-04T11:51:34;3.95;;;1.63;;
50900;SDS011;36879;51.416;6.678;2023-04-04T11:54:01;3.10;;;1.88;;
50900;SDS011;36879;51.416;6.678;2023-04-04T11:56:27;5.47;;;1.98;;
50900;SDS011;36879;51.416;6.678;2023-04-04T11:58:53;5.03;;;1.63;;
50900;SDS011;36879;51.416;6.678;2023-04-04T12:01:19;3.28;;;1.85;;
50900;SDS011;36879;51.416;6.678;2023-04-04T12:03:47;5.40;;;1.75;;
50900;SDS011;36879;51.416;6.678;2023-04-04T12:06:13;4.57;;;2.33;;
50900;SDS011;36879;51.416;6.678;2023-04-04T12:08:40;5.03;;;1.60;;
50900;SDS011;36879;51.416;6.678;2023-04-04T12:11:07;3.83;;;1.30;;
50900;SDS011;36879;51.416;6.678;2023-04-04T12:13:42;4.20;;;1.70;;
50900;SDS011;36879;51.416;6.678;2023-04-04T12:16:09;3.00;;;1.67;;
50900;SDS011;36879;51.416;6.678;2023-04-04T12:18:35;2.78;;;1.58;;
50900;SDS011;36879;51.416;6.678;2023-04-04T12:21:01;5.50;;;2.17;;
50900;SDS011;36879;51.416;6.678;2023-04-04T12:23:34;4.40;;;1.67;;
50900;SDS011;36879;51.416;6.678;2023-04-04T12:26:00;3.63;;;1.75;;
50900;SDS011;36879;51.416;6.678;2023-04-04T12:28:29;6.47;;;2.22;;
50900;SDS011;36879;51.416;6.678;2023-04-04T12:30:57;3.08;;;1.83;;
50900;SDS011;36879;51.416;6.678;2023-04-04T12:33:29;4.40;;;1.83;;
50900;SDS011;36879;51.416;6.678;2023-04-04T12:35:57;3.28;;;2.03;;
50900;SDS011;36879;51.416;6.678;2023-04-04T12:38:24;2.88;;;1.92;;
50900;SDS011;36879;51.416;6.678;2023-04-04T12:40:55;5.72;;;1.50;;
50900;SDS011;36879;51.416;6.678;2023-04-04T12:43:21;3.63;;;1.85;;
50900;SDS011;36879;51.416;6.678;2023-04-04T12:45:48;3.25;;;1.60;;
50900;SDS011;36879;51.416;6.678;2023-04-04T12:48:16;4.72;;;2.58;;
50900;SDS011;36879;51.416;6.678;2023-04-04T12:50:55;4.00;;;1.95;;
50900;SDS011;36879;51.416;6.678;2023-04-04T12:53:25;2.53;;;1.38;;
50900;SDS011;36879;51.416;6.678;2023-04-04T12:55:52;6.38;;;2.22;;
50900;SDS011;36879;51.416;6.678;2023-04-04T12:58:19;5.65;;;1.90;;
50900;SDS011;36879;51.416;6.678;2023-04-04T13:00:45;5.80;;;2.22;;
50900;SDS011;36879;51.416;6.678;2023-04-04T13:03:12;4.22;;;1.70;;
50900;SDS011;36879;51.416;6.678;2023-04-04T13:05:41;4.57;;;1.90;;
50900;SDS011;36879;51.416;6.678;2023-04-04T13:08:07;3.08;;;1.45;;
50900;SDS011;36879;51.416;6.678;2023-04-04T13:15:59;3.53;;;2.03;;
50900;SDS011;36879;51.416;6.678;2023-04-04T13:18:30;6.28;;;1.85;;
50900;SDS011;36879;51.416;6.678;2023-04-04T13:20:57;3.78;;;1.98;;
50900;SDS011;36879;51.416;6.678;2023-04-04T13:23:23;6.03;;;2.22;;
50900;SDS011;36879;51.416;6.678;2023-04-04T13:25:49;5.65;;;1.50;;
50900;SDS011;36879;51.416;6.678;2023-04-04T13:28:15;4.40;;;1.73;;
50900;SDS011;36879;51.416;6.678;2023-04-04T13:30:41;4.57;;;2.03;;
50900;SDS011;36879;51.416;6.678;2023-04-04T13:33:12;4.65;;;2.05;;
50900;SDS011;36879;51.416;6.678;2023-04-04T13:35:38;4.35;;;1.50;;
50900;SDS011;36879;51.416;6.678;2023-04-04T13:38:04;3.40;;;2.15;;
50900;SDS011;36879;51.416;6.678;2023-04-04T13:40:30;6.55;;;2.60;;
50900;SDS011;36879;51.416;6.678;2023-04-04T13:42:56;6.40;;;2.05;;
50900;SDS011;36879;51.416;6.678;2023-04-04T13:45:22;3.75;;;1.60;;
50900;SDS011;36879;51.416;6.678;2023-04-04T13:47:48;5.95;;;3.00;;
50900;SDS011;36879;51.416;6.678;2023-04-04T13:50:14;6.40;;;2.13;;
50900;SDS011;36879;51.416;6.678;2023-04-04T13:52:40;3.35;;;1.60;;
50900;SDS011;36879;51.416;6.678;2023-04-04T13:55:06;5.00;;;2.17;;
50900;SDS011;36879;51.416;6.678;2023-04-04T13:57:33;6.40;;;1.63;;
50900;SDS011;36879;51.416;6.678;2023-04-04T13:59:59;5.10;;;1.85;;
50900;SDS011;36879;51.416;6.678;2023-04-04T14:02:25;4.70;;;2.00;;
50900;SDS011;36879;51.416;6.678;2023-04-04T14:04:51;4.68;;;2.20;;
50900;SDS011;36879;51.416;6.678;2023-04-04T14:07:17;5.03;;;2.42;;
50900;SDS011;36879;51.416;6.678;2023-04-04T14:09:43;4.60;;;2.00;;
50900;SDS011;36879;51.416;6.678;2023-04-04T14:12:10;4.00;;;1.95;;
50900;SDS011;36879;51.416;6.678;2023-04-04T14:14:36;9.35;;;3.05;;
50900;SDS011;36879;51.416;6.678;2023-04-04T14:17:02;4.95;;;2.33;;
50900;SDS011;36879;51.416;6.678;2023-04-04T14:19:27;3.10;;;1.80;;
50900;SDS011;36879;51.416;6.678;2023-04-04T14:21:53;2.92;;;1.90;;
50900;SDS011;36879;51.416;6.678;2023-04-04T14:24:19;3.78;;;1.85;;
50900;SDS011;36879;51.416;6.678;2023-04-04T14:26:45;4.78;;;1.77;;
50900;SDS011;36879;51.416;6.678;2023-04-04T14:29:12;6.65;;;2.00;;
50900;SDS011;36879;51.416;6.678;2023-04-04T14:31:38;4.38;;;1.80;;
50900;SDS011;36879;51.416;6.678;2023-04-04T14:34:04;6.53;;;2.45;;
50900;SDS011;36879;51.416;6.678;2023-04-04T14:36:31;8.15;;;2.75;;
50900;SDS011;36879;51.416;6.678;2023-04-04T14:38:57;9.13;;;2.47;;
50900;SDS011;36879;51.416;6.678;2023-04-04T14:41:23;8.18;;;2.33;;
50900;SDS011;36879;51.416;6.678;2023-04-04T14:43:49;4.53;;;2.00;;
50900;SDS011;36879;51.416;6.678;2023-04-04T14:46:16;3.58;;;2.10;;
50900;SDS011;36879;51.416;6.678;2023-04-04T14:48:43;3.45;;;1.83;;
50900;SDS011;36879;51.416;6.678;2023-04-04T14:51:09;5.47;;;1.80;;
50900;SDS011;36879;51.416;6.678;2023-04-04T14:53:35;4.82;;;2.55;;
50900;SDS011;36879;51.416;6.678;2023-04-04T14:56:01;5.57;;;2.40;;
50900;SDS011;36879;51.416;6.678;2023-04-04T14:58:27;4.70;;;2.20;;
50900;SDS011;36879;51.416;6.678;2023-04-04T15:00:53;3.47;;;2.00;;
50900;SDS011;36879;51.416;6.678;2023-04-04T15:03:19;5.25;;;2.17;;
50900;SDS011;36879;51.416;6.678;2023-04-04T15:05:46;4.20;;;1.70;;
50900;SDS011;36879;51.416;6.678;2023-04-04T15:08:12;5.65;;;2.22;;
50900;SDS011;36879;51.416;6.678;2023-04-04T15:10:38;5.10;;;2.83;;
50900;SDS011;36879;51.416;6.678;2023-04-04T15:13:04;3.95;;;2.13;;
50900;SDS011;36879;51.416;6.678;2023-04-04T15:15:30;6.78;;;2.67;;